createdAt,value
2022-07-31T00:00:51.397Z,9.70
2022-07-31T00:03:18.111Z,9.88
2022-07-31T00:05:44.764Z,13.85
2022-07-31T00:08:11.346Z,10.10
2022-07-31T00:10:38.517Z,14.77
2022-07-31T00:13:05.209Z,11.20
2022-07-31T00:15:31.829Z,13.13
2022-07-31T00:17:58.416Z,15.07
2022-07-31T00:20:25.071Z,9.98
2022-07-31T00:22:51.749Z,11.18
2022-07-31T00:25:19.019Z,13.05
2022-07-31T00:27:46.533Z,15.30
2022-07-31T00:30:13.746Z,13.23
2022-07-31T00:32:41.753Z,9.80
2022-07-31T00:35:08.972Z,11.02
2022-07-31T00:37:37.646Z,9.30
2022-07-31T00:40:07.887Z,13.27
2022-07-31T00:42:34.787Z,10.20
2022-07-31T00:45:01.610Z,9.73
2022-07-31T00:47:28.365Z,10.90
2022-07-31T00:49:56.578Z,8.70
2022-07-31T00:52:23.662Z,11.70
2022-07-31T00:54:50.283Z,9.40
2022-07-31T00:57:16.909Z,8.85
2022-07-31T00:59:43.920Z,10.27
2022-07-31T01:02:10.925Z,8.50
2022-07-31T01:04:37.751Z,10.18
2022-07-31T01:07:08.560Z,12.57
2022-07-31T01:09:36.011Z,9.30
2022-07-31T01:12:32.812Z,11.32
2022-07-31T01:15:04.821Z,9.20
2022-07-31T01:17:32.896Z,10.38
2022-07-31T01:19:59.883Z,8.73
2022-07-31T01:22:53.687Z,10.80
2022-07-31T01:25:47.843Z,7.82
2022-07-31T01:28:49.600Z,9.50
2022-07-31T01:31:27.224Z,8.25
2022-07-31T01:34:03.995Z,11.75
2022-07-31T01:36:35.155Z,6.53
2022-07-31T01:39:02.841Z,6.88
2022-07-31T01:41:36.222Z,8.35
2022-07-31T01:44:05.378Z,7.30
2022-07-31T01:46:37.464Z,9.50
2022-07-31T01:49:09.979Z,7.35
2022-07-31T01:51:39.167Z,7.13
2022-07-31T01:54:06.866Z,7.85
2022-07-31T01:56:35.115Z,6.35
2022-07-31T01:59:04.600Z,7.70
2022-07-31T02:01:45.013Z,7.22
2022-07-31T02:04:14.144Z,6.80
2022-07-31T02:06:41.653Z,8.05
2022-07-31T02:09:08.505Z,8.73
2022-07-31T02:11:36.045Z,7.53
2022-07-31T02:14:21.460Z,9.30
2022-07-31T02:16:49.503Z,12.77
2022-07-31T02:19:17.321Z,10.40
2022-07-31T02:21:44.071Z,8.27
2022-07-31T02:24:10.755Z,7.57
2022-07-31T02:26:40.324Z,9.18
2022-07-31T02:29:19.788Z,6.07
2022-07-31T02:32:02.982Z,10.13
2022-07-31T02:34:32.434Z,9.90
2022-07-31T02:37:01.261Z,6.78
2022-07-31T02:39:30.810Z,7.38
2022-07-31T02:42:01.665Z,7.75
2022-07-31T02:44:32.465Z,7.07
2022-07-31T02:47:02.574Z,6.88
2022-07-31T02:49:30.724Z,8.85
2022-07-31T02:51:57.934Z,8.02
2022-07-31T02:54:26.163Z,8.90
2022-07-31T02:56:53.675Z,6.88
2022-07-31T02:59:22.139Z,7.78
2022-07-31T03:01:48.944Z,13.70
2022-07-31T03:04:15.621Z,6.68
2022-07-31T03:06:43.425Z,5.53
2022-07-31T03:09:10.155Z,7.57
2022-07-31T03:11:36.906Z,7.15
2022-07-31T03:14:05.599Z,5.97
2022-07-31T03:16:34.135Z,10.65
2022-07-31T03:19:01.923Z,6.15
2022-07-31T03:21:29.712Z,6.70
2022-07-31T03:23:57.532Z,7.15
2022-07-31T03:26:24.546Z,6.75
2022-07-31T03:28:51.453Z,6.70
2022-07-31T03:31:18.047Z,8.23
2022-07-31T03:33:44.683Z,8.25
2022-07-31T03:36:11.395Z,7.63
2022-07-31T03:38:42.248Z,5.97
2022-07-31T03:41:11.030Z,6.45
2022-07-31T03:43:44.375Z,6.90
2022-07-31T03:46:17.043Z,6.45
2022-07-31T03:48:43.771Z,6.57
2022-07-31T03:51:10.714Z,9.27
2022-07-31T03:53:37.991Z,7.10
2022-07-31T03:56:06.716Z,12.07
2022-07-31T03:58:33.522Z,9.88
2022-07-31T04:01:07.299Z,7.90
2022-07-31T04:03:38.191Z,8.15
2022-07-31T04:06:04.843Z,9.20
2022-07-31T04:08:31.463Z,12.88
2022-07-31T04:10:59.165Z,7.38
2022-07-31T04:13:25.728Z,8.70
2022-07-31T04:15:52.347Z,8.80
2022-07-31T04:18:19.004Z,8.02
2022-07-31T04:20:45.632Z,8.57
2022-07-31T04:23:12.278Z,7.72
2022-07-31T04:25:39.252Z,9.07
2022-07-31T04:28:05.921Z,8.15
2022-07-31T04:30:32.560Z,9.15
2022-07-31T04:32:59.492Z,11.20
2022-07-31T04:35:26.096Z,6.75
2022-07-31T04:37:52.765Z,8.23
2022-07-31T04:40:19.425Z,8.90
2022-07-31T04:42:46.075Z,9.18
2022-07-31T04:45:12.759Z,8.55
2022-07-31T04:47:39.320Z,6.10
2022-07-31T04:50:06.468Z,6.32
2022-07-31T04:52:33.066Z,6.93
2022-07-31T04:54:59.658Z,6.15
2022-07-31T04:57:26.295Z,5.90
2022-07-31T04:59:59.339Z,7.68
2022-07-31T05:02:29.134Z,6.18
2022-07-31T05:04:56.771Z,11.90
2022-07-31T05:07:24.471Z,9.10
2022-07-31T05:09:55.480Z,9.55
2022-07-31T05:12:22.098Z,8.35
2022-07-31T05:14:51.874Z,5.63
2022-07-31T05:17:18.426Z,12.25
2022-07-31T05:19:45.079Z,9.57
2022-07-31T05:22:12.431Z,6.72
2022-07-31T05:24:39.176Z,6.75
2022-07-31T05:27:06.413Z,5.55
2022-07-31T05:29:33.665Z,5.57
2022-07-31T05:32:01.255Z,6.50
2022-07-31T05:34:31.213Z,6.35
2022-07-31T05:37:01.173Z,6.35
2022-07-31T05:39:28.702Z,7.20
2022-07-31T05:41:55.326Z,6.18
2022-07-31T05:44:21.991Z,6.95
2022-07-31T05:49:15.829Z,6.07
2022-07-31T05:51:46.742Z,7.63
2022-07-31T05:54:13.759Z,5.47
2022-07-31T05:56:40.380Z,7.65
2022-07-31T05:59:07.040Z,4.28
2022-07-31T06:01:33.735Z,5.15
2022-07-31T06:04:01.076Z,4.38
2022-07-31T06:06:27.721Z,9.23
2022-07-31T06:08:55.228Z,5.53
2022-07-31T06:11:21.936Z,3.97
2022-07-31T06:13:48.535Z,4.10
2022-07-31T06:16:15.717Z,5.38
2022-07-31T06:18:43.424Z,8.35
2022-07-31T06:23:37.324Z,4.90
2022-07-31T06:26:04.367Z,4.95
2022-07-31T06:28:47.671Z,3.92
2022-07-31T06:31:17.825Z,3.83
2022-07-31T06:33:48.081Z,6.93
2022-07-31T06:36:16.469Z,3.43
2022-07-31T06:38:43.035Z,6.20
2022-07-31T06:41:09.764Z,6.18
2022-07-31T06:43:36.431Z,7.22
2022-07-31T06:46:03.055Z,10.18
2022-07-31T06:48:29.692Z,6.20
2022-07-31T06:51:14.699Z,5.57
2022-07-31T06:53:42.934Z,6.85
2022-07-31T06:56:09.572Z,10.18
2022-07-31T06:58:36.180Z,7.53
2022-07-31T07:01:02.886Z,5.63
2022-07-31T07:03:29.493Z,6.15
2022-07-31T07:05:56.097Z,3.97
2022-07-31T07:08:22.706Z,4.32
2022-07-31T07:10:49.462Z,4.32
2022-07-31T07:13:16.122Z,6.05
2022-07-31T07:15:42.801Z,5.40
2022-07-31T07:18:09.428Z,4.53
2022-07-31T07:20:36.017Z,5.70
2022-07-31T07:23:02.659Z,4.43
2022-07-31T07:25:29.342Z,5.47
2022-07-31T07:27:56.815Z,5.28
2022-07-31T07:30:24.222Z,4.25
2022-07-31T07:32:50.916Z,4.50
2022-07-31T07:35:17.552Z,8.50
2022-07-31T07:37:44.192Z,5.07
2022-07-31T07:40:11.686Z,4.95
2022-07-31T07:42:38.544Z,7.57
2022-07-31T07:45:08.143Z,6.10
2022-07-31T07:48:05.698Z,2.83
2022-07-31T07:50:26.693Z,6.10
2022-07-31T07:52:54.268Z,3.40
2022-07-31T07:55:20.856Z,3.53
2022-07-31T07:57:47.468Z,3.10
2022-07-31T08:00:14.741Z,3.67
2022-07-31T08:02:42.689Z,6.30
2022-07-31T08:05:09.583Z,4.13
2022-07-31T08:07:42.123Z,4.85
2022-07-31T08:10:10.715Z,5.72
2022-07-31T08:12:38.052Z,4.63
2022-07-31T08:15:05.626Z,5.45
2022-07-31T08:17:32.273Z,7.05
2022-07-31T08:19:58.868Z,3.45
2022-07-31T08:22:25.602Z,3.90
2022-07-31T08:24:52.190Z,3.80
2022-07-31T08:27:28.470Z,6.65
2022-07-31T08:30:08.087Z,3.33
2022-07-31T08:32:34.821Z,4.70
2022-07-31T08:35:01.757Z,3.08
2022-07-31T08:38:02.303Z,6.32
2022-07-31T08:40:17.969Z,4.03
2022-07-31T08:42:46.163Z,3.40
2022-07-31T08:45:14.175Z,4.03
2022-07-31T08:47:42.311Z,3.17
2022-07-31T08:50:13.048Z,4.03
2022-07-31T08:52:42.820Z,2.08
2022-07-31T08:55:10.182Z,3.80
2022-07-31T08:57:37.105Z,4.47
2022-07-31T09:00:09.895Z,6.57
2022-07-31T09:02:41.697Z,2.25
2022-07-31T09:05:08.734Z,7.80
2022-07-31T09:07:35.448Z,2.67
2022-07-31T09:10:07.251Z,2.88
2022-07-31T09:12:34.790Z,3.42
2022-07-31T09:15:02.229Z,6.38
2022-07-31T09:17:36.402Z,3.13
2022-07-31T09:20:05.639Z,4.85
2022-07-31T09:22:32.375Z,2.33
2022-07-31T09:25:19.294Z,3.10
2022-07-31T09:27:48.833Z,2.80
2022-07-31T09:30:16.235Z,6.72
2022-07-31T09:32:43.362Z,6.97
2022-07-31T09:35:12.226Z,3.95
2022-07-31T09:37:39.415Z,6.40
2022-07-31T09:40:08.088Z,1.83
2022-07-31T09:42:45.846Z,2.55
2022-07-31T09:45:20.299Z,2.00
2022-07-31T09:47:47.478Z,6.28
2022-07-31T09:50:14.579Z,6.15
2022-07-31T09:52:41.286Z,4.80
2022-07-31T09:55:15.556Z,3.10
2022-07-31T09:57:54.317Z,1.95
2022-07-31T10:00:21.484Z,2.22
2022-07-31T10:02:48.764Z,1.80
2022-07-31T10:05:16.439Z,5.47
2022-07-31T10:07:43.587Z,2.22
2022-07-31T10:10:12.285Z,1.65
2022-07-31T10:12:42.288Z,2.83
2022-07-31T10:15:13.741Z,4.95
2022-07-31T10:20:15.018Z,6.38
2022-07-31T10:25:19.741Z,3.42
2022-07-31T10:27:46.664Z,2.45
2022-07-31T10:30:13.581Z,2.95
2022-07-31T10:32:40.298Z,3.25
2022-07-31T10:35:07.833Z,4.78
2022-07-31T10:37:40.374Z,2.58
2022-07-31T10:40:26.584Z,4.70
2022-07-31T10:43:20.301Z,2.33
2022-07-31T10:45:52.304Z,6.03
2022-07-31T10:48:20.109Z,4.63
2022-07-31T10:50:47.323Z,3.33
2022-07-31T10:53:18.283Z,7.88
2022-07-31T10:55:45.325Z,3.58
2022-07-31T10:58:21.880Z,1.80
2022-07-31T11:00:51.873Z,3.15
2022-07-31T11:03:20.493Z,6.30
2022-07-31T11:06:02.360Z,1.60
2022-07-31T11:08:41.329Z,2.10
2022-07-31T11:11:08.115Z,1.92
2022-07-31T11:13:52.081Z,2.35
2022-07-31T11:16:19.700Z,2.13
2022-07-31T11:19:08.434Z,2.10
2022-07-31T11:21:40.634Z,4.07
2022-07-31T11:24:13.779Z,1.65
2022-07-31T11:26:53.910Z,2.20
2022-07-31T11:29:59.396Z,4.68
2022-07-31T11:32:22.895Z,2.10
2022-07-31T11:34:56.894Z,4.78
2022-07-31T11:37:25.646Z,2.58
2022-07-31T11:39:54.678Z,2.20
2022-07-31T11:42:27.527Z,4.00
2022-07-31T11:45:08.353Z,2.95
2022-07-31T11:48:12.603Z,1.63
2022-07-31T11:50:31.203Z,1.95
2022-07-31T11:53:04.587Z,2.42
2022-07-31T11:55:31.367Z,3.00
2022-07-31T11:57:58.013Z,1.75
2022-07-31T12:00:26.784Z,2.08
2022-07-31T12:05:38.000Z,2.97
2022-07-31T12:08:05.556Z,4.65
2022-07-31T12:10:32.291Z,4.10
2022-07-31T12:12:58.932Z,5.18
2022-07-31T12:15:25.594Z,3.88
2022-07-31T12:18:01.811Z,2.92
2022-07-31T12:20:35.751Z,4.07
2022-07-31T12:23:05.151Z,2.40
2022-07-31T12:25:46.397Z,2.65
2022-07-31T12:28:14.446Z,3.83
2022-07-31T12:31:03.007Z,2.13
2022-07-31T12:33:40.719Z,1.70
2022-07-31T12:36:17.917Z,2.03
2022-07-31T12:38:48.273Z,3.67
2022-07-31T12:41:16.092Z,3.08
2022-07-31T12:43:51.121Z,9.93
2022-07-31T12:46:19.493Z,2.58
2022-07-31T12:48:46.561Z,3.83
2022-07-31T12:51:13.403Z,2.97
2022-07-31T12:53:40.084Z,4.93
2022-07-31T12:56:13.763Z,4.90
2022-07-31T12:58:40.378Z,4.22
2022-07-31T13:01:07.064Z,3.00
2022-07-31T13:03:45.473Z,1.58
2022-07-31T13:06:13.503Z,3.65
2022-07-31T13:08:40.305Z,3.75
2022-07-31T13:11:06.904Z,4.38
2022-07-31T13:13:33.577Z,5.05
2022-07-31T13:16:00.280Z,2.40
2022-07-31T13:18:26.856Z,2.22
2022-07-31T13:20:53.553Z,2.85
2022-07-31T13:23:21.511Z,4.35
2022-07-31T13:25:48.181Z,3.85
2022-07-31T13:28:14.791Z,2.33
2022-07-31T13:30:41.669Z,4.20
2022-07-31T13:33:08.343Z,3.33
2022-07-31T13:35:34.996Z,4.38
2022-07-31T13:38:01.615Z,2.78
2022-07-31T13:40:46.648Z,2.45
2022-07-31T13:43:13.656Z,4.82
2022-07-31T13:45:40.338Z,1.55
2022-07-31T13:48:09.519Z,2.25
2022-07-31T13:50:39.976Z,3.90
2022-07-31T13:53:06.900Z,1.63
2022-07-31T13:55:33.579Z,6.50
2022-07-31T13:58:01.315Z,2.55
2022-07-31T14:00:29.651Z,3.83
2022-07-31T14:02:56.979Z,3.03
2022-07-31T14:05:24.242Z,4.40
2022-07-31T14:07:53.357Z,11.02
2022-07-31T14:10:21.811Z,2.65
2022-07-31T14:12:49.006Z,4.57
2022-07-31T14:15:16.666Z,3.15
2022-07-31T14:17:43.287Z,2.35
2022-07-31T14:20:10.435Z,1.95
2022-07-31T14:22:37.090Z,1.70
2022-07-31T14:25:04.217Z,1.35
2022-07-31T14:27:31.003Z,6.60
2022-07-31T14:29:57.681Z,3.72
2022-07-31T14:32:25.271Z,2.33
2022-07-31T14:34:52.380Z,2.85
2022-07-31T14:37:20.594Z,1.40
2022-07-31T14:39:47.829Z,3.22
2022-07-31T14:42:14.524Z,1.95
2022-07-31T14:44:42.315Z,5.88
2022-07-31T14:47:11.213Z,2.20
2022-07-31T14:50:07.644Z,3.58
2022-07-31T14:52:25.225Z,1.48
2022-07-31T14:54:53.918Z,2.35
2022-07-31T14:57:22.317Z,2.28
2022-07-31T14:59:50.060Z,1.60
2022-07-31T15:02:21.969Z,5.35
2022-07-31T15:04:49.721Z,3.42
2022-07-31T15:07:34.779Z,5.38
2022-07-31T15:10:06.917Z,2.08
2022-07-31T15:12:33.690Z,2.13
2022-07-31T15:15:00.558Z,4.13
2022-07-31T15:17:27.244Z,2.50
2022-07-31T15:19:54.002Z,2.05
2022-07-31T15:22:20.916Z,1.55
2022-07-31T15:24:50.050Z,1.45
2022-07-31T15:27:24.766Z,1.60
2022-07-31T15:30:03.693Z,7.18
2022-07-31T15:32:35.416Z,4.95
2022-07-31T15:35:02.625Z,8.32
2022-07-31T15:37:30.230Z,1.85
2022-07-31T15:40:01.904Z,8.95
2022-07-31T15:42:30.242Z,1.48
2022-07-31T15:44:56.846Z,2.28
2022-07-31T15:47:23.587Z,2.80
2022-07-31T15:49:50.408Z,7.22
2022-07-31T15:52:19.053Z,8.38
2022-07-31T15:54:46.696Z,2.33
2022-07-31T15:57:13.678Z,6.32
2022-07-31T15:59:41.820Z,2.70
2022-07-31T16:02:08.553Z,4.07
2022-07-31T16:04:51.565Z,1.80
2022-07-31T16:08:28.600Z,3.15
2022-07-31T16:10:15.428Z,2.88
2022-07-31T16:12:46.576Z,6.95
2022-07-31T16:15:14.333Z,5.60
2022-07-31T16:17:41.818Z,6.65
2022-07-31T16:20:25.565Z,5.65
2022-07-31T16:22:56.466Z,2.58
2022-07-31T16:25:24.506Z,4.13
2022-07-31T16:27:51.694Z,1.92
2022-07-31T16:30:18.377Z,3.58
2022-07-31T16:32:45.105Z,2.35
2022-07-31T16:35:12.627Z,5.90
2022-07-31T16:37:51.298Z,3.45
2022-07-31T16:40:29.684Z,3.95
2022-07-31T16:43:49.365Z,3.45
2022-07-31T16:45:50.515Z,6.88
2022-07-31T16:48:17.429Z,4.53
2022-07-31T16:50:44.099Z,3.00
2022-07-31T16:54:11.076Z,1.38
2022-07-31T16:56:01.016Z,1.42
2022-07-31T16:58:28.991Z,4.10
2022-07-31T17:00:55.854Z,2.45
2022-07-31T17:03:58.912Z,5.20
2022-07-31T17:06:10.516Z,6.65
2022-07-31T17:08:38.318Z,4.30
2022-07-31T17:11:05.250Z,4.00
2022-07-31T17:13:32.002Z,4.68
2022-07-31T17:15:58.704Z,2.72
2022-07-31T17:18:26.028Z,3.22
2022-07-31T17:20:55.722Z,3.75
2022-07-31T17:23:43.276Z,1.80
2022-07-31T17:26:21.165Z,2.13
2022-07-31T17:28:50.667Z,8.77
2022-07-31T17:31:18.920Z,8.45
2022-07-31T17:33:58.331Z,2.92
2022-07-31T17:36:28.500Z,2.72
2022-07-31T17:38:55.694Z,3.95
2022-07-31T17:41:24.833Z,5.95
2022-07-31T17:43:55.567Z,6.25
2022-07-31T17:46:34.603Z,1.85
2022-07-31T17:49:05.822Z,2.22
2022-07-31T17:51:33.192Z,5.38
2022-07-31T17:54:00.120Z,2.47
2022-07-31T17:56:27.155Z,6.40
2022-07-31T17:58:55.646Z,1.63
2022-07-31T18:01:27.062Z,4.65
2022-07-31T18:03:55.764Z,5.75
2022-07-31T18:06:22.506Z,10.77
2022-07-31T18:08:49.337Z,5.28
2022-07-31T18:11:15.981Z,3.38
2022-07-31T18:13:48.578Z,3.42
2022-07-31T18:16:19.208Z,2.75
2022-07-31T18:18:46.295Z,2.78
2022-07-31T18:21:13.450Z,4.90
2022-07-31T18:23:47.307Z,7.38
2022-07-31T18:26:14.600Z,3.30
2022-07-31T18:28:41.452Z,2.80
2022-07-31T18:31:24.153Z,6.35
2022-07-31T18:33:54.844Z,4.00
2022-07-31T18:36:21.575Z,4.75
2022-07-31T18:38:48.366Z,5.72
2022-07-31T18:41:15.071Z,5.15
2022-07-31T18:43:41.673Z,5.80
2022-07-31T18:46:08.299Z,9.38
2022-07-31T18:48:34.951Z,1.70
2022-07-31T18:51:04.718Z,3.33
2022-07-31T18:53:32.823Z,11.77
2022-07-31T18:55:59.479Z,2.25
2022-07-31T18:58:26.146Z,3.25
2022-07-31T19:00:55.080Z,3.70
2022-07-31T19:03:26.407Z,5.13
2022-07-31T19:05:54.563Z,5.10
2022-07-31T19:08:21.508Z,8.40
2022-07-31T19:10:53.518Z,3.58
2022-07-31T19:13:21.247Z,5.70
2022-07-31T19:15:49.091Z,3.22
2022-07-31T19:18:15.811Z,8.10
2022-07-31T19:20:58.935Z,6.35
2022-07-31T19:23:32.323Z,5.60
2022-07-31T19:26:04.093Z,5.65
2022-07-31T19:28:34.049Z,3.22
2022-07-31T19:31:00.702Z,3.60
2022-07-31T19:33:27.329Z,4.18
2022-07-31T19:36:00.963Z,4.75
2022-07-31T19:38:30.147Z,6.65
2022-07-31T19:40:56.850Z,7.65
2022-07-31T19:43:23.494Z,7.53
2022-07-31T19:46:00.489Z,10.50
2022-07-31T19:48:36.957Z,5.97
2022-07-31T19:51:04.734Z,10.20
2022-07-31T19:53:31.674Z,10.88
2022-07-31T19:56:01.341Z,14.38
2022-07-31T19:58:27.939Z,10.80
2022-07-31T20:00:54.572Z,10.38
2022-07-31T20:03:21.324Z,6.38
2022-07-31T20:05:47.996Z,10.48
2022-07-31T20:08:14.595Z,7.82
2022-07-31T20:10:41.240Z,9.77
2022-07-31T20:13:07.823Z,6.90
2022-07-31T20:15:51.682Z,7.15
2022-07-31T20:18:27.582Z,8.63
2022-07-31T20:20:57.750Z,8.57
2022-07-31T20:23:27.777Z,6.43
2022-07-31T20:25:54.632Z,12.68
2022-07-31T20:28:21.518Z,11.85
2022-07-31T20:30:48.376Z,6.10
2022-07-31T20:33:15.257Z,9.93
2022-07-31T20:35:47.630Z,9.80
2022-07-31T20:38:22.826Z,7.43
2022-07-31T20:40:54.408Z,10.57
2022-07-31T20:43:26.580Z,11.10
2022-07-31T20:45:57.963Z,4.75
2022-07-31T20:48:31.243Z,9.68
2022-07-31T20:51:03.999Z,8.98
2022-07-31T20:53:31.945Z,11.55
2022-07-31T20:55:59.355Z,16.95
2022-07-31T20:58:26.452Z,12.02
2022-07-31T21:00:53.797Z,17.27
2022-07-31T21:03:20.925Z,13.18
2022-07-31T21:05:47.929Z,15.60
2022-07-31T21:08:16.259Z,16.20
2022-07-31T21:10:42.949Z,13.75
2022-07-31T21:13:10.129Z,15.00
2022-07-31T21:15:43.902Z,10.45
2022-07-31T21:18:16.328Z,9.85
2022-07-31T21:20:51.007Z,7.65
2022-07-31T21:23:24.289Z,10.48
2022-07-31T21:25:55.358Z,8.60
2022-07-31T21:28:23.291Z,9.32
2022-07-31T21:30:50.339Z,10.60
2022-07-31T21:33:18.366Z,16.00
2022-07-31T21:35:46.644Z,13.32
2022-07-31T21:38:17.148Z,14.98
2022-07-31T21:40:45.008Z,12.48
2022-07-31T21:43:15.977Z,11.00
2022-07-31T21:45:50.464Z,9.70
2022-07-31T21:48:24.869Z,6.38
2022-07-31T21:50:52.558Z,7.57
2022-07-31T21:53:19.474Z,12.30
2022-07-31T21:55:46.136Z,5.93
2022-07-31T21:58:12.752Z,6.68
2022-07-31T22:00:39.498Z,7.05
2022-07-31T22:03:06.322Z,7.07
2022-07-31T22:05:52.742Z,10.82
2022-07-31T22:08:20.246Z,9.10
2022-07-31T22:10:47.182Z,8.45
2022-07-31T22:13:13.883Z,5.07
2022-07-31T22:15:52.702Z,7.80
2022-07-31T22:18:32.358Z,6.43
2022-07-31T22:21:00.473Z,5.28
2022-07-31T22:23:27.916Z,11.88
2022-07-31T22:25:55.414Z,6.30
2022-07-31T22:28:23.473Z,8.30
2022-07-31T22:30:50.902Z,6.95
2022-07-31T22:33:17.955Z,9.10
2022-07-31T22:35:44.796Z,5.97
2022-07-31T22:38:26.679Z,8.90
2022-07-31T22:40:53.352Z,8.32
2022-07-31T22:44:10.224Z,7.05
2022-07-31T22:46:06.825Z,3.83
2022-07-31T22:48:33.745Z,4.45
2022-07-31T22:51:01.599Z,4.88
2022-07-31T22:53:28.237Z,5.88
2022-07-31T22:55:55.147Z,4.10
2022-07-31T22:58:22.351Z,7.65
2022-07-31T23:00:49.970Z,5.97
2022-07-31T23:03:17.028Z,9.13
2022-07-31T23:06:13.083Z,6.68
2022-07-31T23:08:30.302Z,15.13
2022-07-31T23:10:56.899Z,12.00
2022-07-31T23:13:23.515Z,13.43
2022-07-31T23:15:50.145Z,18.05
2022-07-31T23:18:16.737Z,12.38
2022-07-31T23:20:44.125Z,11.35
2022-07-31T23:23:10.740Z,8.23
2022-07-31T23:25:37.397Z,12.80
2022-07-31T23:28:04.037Z,11.65
2022-07-31T23:30:31.138Z,7.65
2022-07-31T23:32:57.724Z,8.23
2022-07-31T23:35:24.301Z,13.55
2022-07-31T23:37:50.907Z,7.07
2022-07-31T23:40:17.527Z,9.52
2022-07-31T23:42:44.145Z,9.38
2022-07-31T23:45:15.410Z,13.40
2022-07-31T23:47:46.227Z,10.88
2022-07-31T23:50:13.721Z,11.20
2022-07-31T23:52:40.413Z,8.40
2022-07-31T23:55:07.397Z,10.80
2022-07-31T23:57:35.925Z,7.47
